KDKK

Chautauqua County / Dunkirk Airport

Dunkirk, New York, USA
METAR KDKK 260253Z AUTO 23013G21KT 10SM CLR 03/M01 A3005 RMK AO2 SLP182 T00281011 51029
Observed Flight Rules
Feb-26 @ 02:53 UTC (42 minutes ago) Visual Flight Rules
Wind Visibility Clouds
230° at 13 knots
 Gusting to 21 knots
10 miles
  • Clear skies
Temperatures Readings
Current 3°C / 37°F
Dewpoint -1°C / 30°F
Humidity 75%
Altimeter 30.05" Hg
Pressure 1018.2 hPa
Elevation 202
METAR KDKK 260253Z AUTO 23013G21KT 10SM CLR 03/M01 A3005 RMK AO2 SLP182 T00281011 51029
Observed Flight Rules
Feb-26 @ 02:53 UTC
(42 minutes ago)
VFR
Wind Visibility
230° at 13 knots
 Gusting to 21 knots
10 miles
Clouds
  • Clear skies
Temperature Dewpoint
3°C / 37°F -1°C / 30°F
Humidity Altimeter Pressure
75% 30.05" Hg 1018.2 hPa